sensor_id;sensor_type;location;lat;lon;timestamp;temperature;humidity
51739;DHT22;37815;52.692;6.226;2022-10-31T00:02:48;15.80;99.90
51739;DHT22;37815;52.692;6.226;2022-10-31T00:07:52;15.80;99.90
51739;DHT22;37815;52.692;6.226;2022-10-31T00:12:53;15.80;99.90
51739;DHT22;37815;52.692;6.226;2022-10-31T00:17:53;15.80;99.90
51739;DHT22;37815;52.692;6.226;2022-10-31T00:22:58;15.80;99.90
51739;DHT22;37815;52.692;6.226;2022-10-31T00:27:59;15.70;99.90
51739;DHT22;37815;52.692;6.226;2022-10-31T00:33:00;15.70;99.90
51739;DHT22;37815;52.692;6.226;2022-10-31T00:38:01;15.70;99.90
51739;DHT22;37815;52.692;6.226;2022-10-31T00:43:01;15.70;99.90
51739;DHT22;37815;52.692;6.226;2022-10-31T00:48:02;15.60;99.90
51739;DHT22;37815;52.692;6.226;2022-10-31T00:53:03;15.60;99.90
51739;DHT22;37815;52.692;6.226;2022-10-31T00:58:03;15.60;99.90
51739;DHT22;37815;52.692;6.226;2022-10-31T01:03:04;15.60;99.90
51739;DHT22;37815;52.692;6.226;2022-10-31T01:08:05;15.60;99.90
51739;DHT22;37815;52.692;6.226;2022-10-31T01:13:06;15.60;99.90
51739;DHT22;37815;52.692;6.226;2022-10-31T01:18:06;15.60;99.90
51739;DHT22;37815;52.692;6.226;2022-10-31T01:23:07;15.60;99.90
51739;DHT22;37815;52.692;6.226;2022-10-31T01:28:08;15.50;99.90
51739;DHT22;37815;52.692;6.226;2022-10-31T01:33:08;15.50;99.90
51739;DHT22;37815;52.692;6.226;2022-10-31T01:38:09;15.50;99.90
51739;DHT22;37815;52.692;6.226;2022-10-31T01:43:14;15.50;99.90
51739;DHT22;37815;52.692;6.226;2022-10-31T01:48:17;15.50;99.90
51739;DHT22;37815;52.692;6.226;2022-10-31T01:53:20;15.40;99.90
51739;DHT22;37815;52.692;6.226;2022-10-31T01:58:26;15.40;99.90
51739;DHT22;37815;52.692;6.226;2022-10-31T02:03:28;15.40;99.90
51739;DHT22;37815;52.692;6.226;2022-10-31T02:08:31;15.40;99.90
51739;DHT22;37815;52.692;6.226;2022-10-31T02:13:34;15.40;99.90
51739;DHT22;37815;52.692;6.226;2022-10-31T02:18:34;15.30;99.90
51739;DHT22;37815;52.692;6.226;2022-10-31T02:34:43;15.30;99.90
51739;DHT22;37815;52.692;6.226;2022-10-31T02:50:28;15.20;99.90
51739;DHT22;37815;52.692;6.226;2022-10-31T03:00:37;15.20;99.90
51739;DHT22;37815;52.692;6.226;2022-10-31T03:11:06;15.20;99.90
51739;DHT22;37815;52.692;6.226;2022-10-31T03:21:21;15.10;99.90
51739;DHT22;37815;52.692;6.226;2022-10-31T03:26:25;15.20;99.90
51739;DHT22;37815;52.692;6.226;2022-10-31T03:31:30;15.10;99.90
51739;DHT22;37815;52.692;6.226;2022-10-31T03:36:35;15.00;99.90
51739;DHT22;37815;52.692;6.226;2022-10-31T03:41:42;15.00;99.90
51739;DHT22;37815;52.692;6.226;2022-10-31T03:46:43;15.00;99.90
51739;DHT22;37815;52.692;6.226;2022-10-31T03:52:05;15.00;99.90
51739;DHT22;37815;52.692;6.226;2022-10-31T03:57:24;15.00;99.90
51739;DHT22;37815;52.692;6.226;2022-10-31T04:02:31;15.00;99.90
51739;DHT22;37815;52.692;6.226;2022-10-31T04:07:36;14.90;99.90
51739;DHT22;37815;52.692;6.226;2022-10-31T04:12:38;14.90;99.90
51739;DHT22;37815;52.692;6.226;2022-10-31T04:17:41;14.90;99.90
51739;DHT22;37815;52.692;6.226;2022-10-31T04:22:44;14.90;99.90
51739;DHT22;37815;52.692;6.226;2022-10-31T04:27:45;14.90;99.90
51739;DHT22;37815;52.692;6.226;2022-10-31T04:32:46;14.80;99.90
51739;DHT22;37815;52.692;6.226;2022-10-31T04:37:47;14.80;99.90
51739;DHT22;37815;52.692;6.226;2022-10-31T04:42:47;14.80;99.90
51739;DHT22;37815;52.692;6.226;2022-10-31T04:47:48;14.80;99.90
51739;DHT22;37815;52.692;6.226;2022-10-31T04:52:49;14.80;99.90
51739;DHT22;37815;52.692;6.226;2022-10-31T04:57:49;14.80;99.90
51739;DHT22;37815;52.692;6.226;2022-10-31T05:02:56;14.70;99.90
51739;DHT22;37815;52.692;6.226;2022-10-31T05:07:57;14.70;99.90
51739;DHT22;37815;52.692;6.226;2022-10-31T05:13:00;14.70;99.90
51739;DHT22;37815;52.692;6.226;2022-10-31T05:18:01;14.70;99.90
51739;DHT22;37815;52.692;6.226;2022-10-31T05:23:02;14.70;99.90
51739;DHT22;37815;52.692;6.226;2022-10-31T05:28:03;14.70;99.90
51739;DHT22;37815;52.692;6.226;2022-10-31T05:33:03;14.60;99.90
51739;DHT22;37815;52.692;6.226;2022-10-31T05:38:04;14.60;99.90
51739;DHT22;37815;52.692;6.226;2022-10-31T05:43:05;14.60;99.90
51739;DHT22;37815;52.692;6.226;2022-10-31T05:48:06;14.60;99.90
51739;DHT22;37815;52.692;6.226;2022-10-31T05:53:07;14.60;99.90
51739;DHT22;37815;52.692;6.226;2022-10-31T05:58:08;14.60;99.90
51739;DHT22;37815;52.692;6.226;2022-10-31T06:03:09;14.60;99.90
51739;DHT22;37815;52.692;6.226;2022-10-31T06:08:10;14.50;99.90
51739;DHT22;37815;52.692;6.226;2022-10-31T06:13:11;14.50;99.90
51739;DHT22;37815;52.692;6.226;2022-10-31T06:18:11;14.50;99.90
51739;DHT22;37815;52.692;6.226;2022-10-31T06:23:12;14.50;99.90
51739;DHT22;37815;52.692;6.226;2022-10-31T06:28:13;14.40;99.90
51739;DHT22;37815;52.692;6.226;2022-10-31T06:33:13;14.40;99.90
51739;DHT22;37815;52.692;6.226;2022-10-31T06:38:14;14.40;99.90
51739;DHT22;37815;52.692;6.226;2022-10-31T06:43:15;14.40;99.90
51739;DHT22;37815;52.692;6.226;2022-10-31T06:48:16;14.40;99.90
51739;DHT22;37815;52.692;6.226;2022-10-31T06:53:16;14.40;99.90
51739;DHT22;37815;52.692;6.226;2022-10-31T06:58:17;14.40;99.90
51739;DHT22;37815;52.692;6.226;2022-10-31T07:03:18;14.30;99.90
51739;DHT22;37815;52.692;6.226;2022-10-31T07:08:20;14.30;99.90
51739;DHT22;37815;52.692;6.226;2022-10-31T07:13:21;14.30;99.90
51739;DHT22;37815;52.692;6.226;2022-10-31T07:18:25;14.30;99.90
51739;DHT22;37815;52.692;6.226;2022-10-31T07:23:26;14.30;99.90
51739;DHT22;37815;52.692;6.226;2022-10-31T07:28:27;14.30;99.90
51739;DHT22;37815;52.692;6.226;2022-10-31T07:33:28;14.30;99.90
51739;DHT22;37815;52.692;6.226;2022-10-31T07:38:28;14.20;99.90
51739;DHT22;37815;52.692;6.226;2022-10-31T07:43:29;14.30;99.90
51739;DHT22;37815;52.692;6.226;2022-10-31T07:48:30;14.30;99.90
51739;DHT22;37815;52.692;6.226;2022-10-31T07:53:31;14.40;99.90
51739;DHT22;37815;52.692;6.226;2022-10-31T07:58:31;14.40;99.90
51739;DHT22;37815;52.692;6.226;2022-10-31T08:03:32;14.40;99.90
51739;DHT22;37815;52.692;6.226;2022-10-31T08:08:33;14.40;99.90
51739;DHT22;37815;52.692;6.226;2022-10-31T08:13:34;14.50;99.90
51739;DHT22;37815;52.692;6.226;2022-10-31T08:18:35;14.40;99.90
51739;DHT22;37815;52.692;6.226;2022-10-31T08:23:37;14.50;99.90
51739;DHT22;37815;52.692;6.226;2022-10-31T08:28:46;14.50;99.90
51739;DHT22;37815;52.692;6.226;2022-10-31T08:33:47;14.60;99.90
51739;DHT22;37815;52.692;6.226;2022-10-31T08:38:48;14.60;99.90
51739;DHT22;37815;52.692;6.226;2022-10-31T08:43:49;14.70;99.90
51739;DHT22;37815;52.692;6.226;2022-10-31T08:48:49;14.60;99.90
51739;DHT22;37815;52.692;6.226;2022-10-31T08:53:50;14.60;99.90
51739;DHT22;37815;52.692;6.226;2022-10-31T08:58:53;14.60;99.90
51739;DHT22;37815;52.692;6.226;2022-10-31T09:03:54;14.60;99.90
51739;DHT22;37815;52.692;6.226;2022-10-31T09:08:54;14.70;99.90
51739;DHT22;37815;52.692;6.226;2022-10-31T09:13:55;14.70;99.90
51739;DHT22;37815;52.692;6.226;2022-10-31T09:18:56;14.70;99.90
51739;DHT22;37815;52.692;6.226;2022-10-31T09:23:56;14.70;99.90
51739;DHT22;37815;52.692;6.226;2022-10-31T09:28:57;14.70;99.90
51739;DHT22;37815;52.692;6.226;2022-10-31T09:33:58;14.70;99.90
51739;DHT22;37815;52.692;6.226;2022-10-31T09:38:59;14.70;99.90
51739;DHT22;37815;52.692;6.226;2022-10-31T09:44:06;14.70;99.90
51739;DHT22;37815;52.692;6.226;2022-10-31T09:59:50;14.70;99.90
51739;DHT22;37815;52.692;6.226;2022-10-31T10:05:00;14.70;99.90
51739;DHT22;37815;52.692;6.226;2022-10-31T10:10:21;14.70;99.90
51739;DHT22;37815;52.692;6.226;2022-10-31T10:15:52;14.70;99.90
51739;DHT22;37815;52.692;6.226;2022-10-31T10:20:59;14.80;99.90
51739;DHT22;37815;52.692;6.226;2022-10-31T10:26:19;14.80;99.90
51739;DHT22;37815;52.692;6.226;2022-10-31T10:31:24;14.90;99.90
51739;DHT22;37815;52.692;6.226;2022-10-31T10:36:56;14.90;99.90
51739;DHT22;37815;52.692;6.226;2022-10-31T10:41:59;15.00;99.90
51739;DHT22;37815;52.692;6.226;2022-10-31T10:47:19;15.00;99.90
51739;DHT22;37815;52.692;6.226;2022-10-31T10:58:11;15.00;99.90
51739;DHT22;37815;52.692;6.226;2022-10-31T11:03:13;15.10;99.90
51739;DHT22;37815;52.692;6.226;2022-10-31T11:08:33;15.00;99.90
51739;DHT22;37815;52.692;6.226;2022-10-31T11:13:35;15.10;99.90
51739;DHT22;37815;52.692;6.226;2022-10-31T11:18:45;15.10;99.90
51739;DHT22;37815;52.692;6.226;2022-10-31T11:23:46;15.10;99.90
51739;DHT22;37815;52.692;6.226;2022-10-31T11:28:59;15.10;99.90
51739;DHT22;37815;52.692;6.226;2022-10-31T11:34:04;15.10;99.90
51739;DHT22;37815;52.692;6.226;2022-10-31T11:39:30;15.10;99.90
51739;DHT22;37815;52.692;6.226;2022-10-31T11:44:31;15.10;99.90
51739;DHT22;37815;52.692;6.226;2022-10-31T11:49:36;15.20;99.90
51739;DHT22;37815;52.692;6.226;2022-10-31T11:59:52;15.20;99.90
51739;DHT22;37815;52.692;6.226;2022-10-31T12:05:07;15.20;99.90
51739;DHT22;37815;52.692;6.226;2022-10-31T12:10:11;15.20;99.90
51739;DHT22;37815;52.692;6.226;2022-10-31T12:25:52;15.30;99.90
51739;DHT22;37815;52.692;6.226;2022-10-31T12:36:27;15.20;99.90
51739;DHT22;37815;52.692;6.226;2022-10-31T13:02:13;15.60;99.90
51739;DHT22;37815;52.692;6.226;2022-10-31T13:07:25;15.70;99.90
51739;DHT22;37815;52.692;6.226;2022-10-31T13:12:30;16.10;99.90
51739;DHT22;37815;52.692;6.226;2022-10-31T13:18:00;15.60;99.90
51739;DHT22;37815;52.692;6.226;2022-10-31T13:38:54;15.60;99.90
51739;DHT22;37815;52.692;6.226;2022-10-31T13:44:03;15.50;99.90
51739;DHT22;37815;52.692;6.226;2022-10-31T13:54:24;15.40;99.90
51739;DHT22;37815;52.692;6.226;2022-10-31T13:59:34;15.40;99.90
51739;DHT22;37815;52.692;6.226;2022-10-31T14:04:43;15.50;99.90
51739;DHT22;37815;52.692;6.226;2022-10-31T14:14:51;15.50;99.90
51739;DHT22;37815;52.692;6.226;2022-10-31T14:30:34;15.40;99.90
51739;DHT22;37815;52.692;6.226;2022-10-31T14:36:03;15.40;99.90
51739;DHT22;37815;52.692;6.226;2022-10-31T14:46:56;15.20;99.90
51739;DHT22;37815;52.692;6.226;2022-10-31T14:51:59;15.20;99.90
51739;DHT22;37815;52.692;6.226;2022-10-31T14:57:05;15.30;99.90
51739;DHT22;37815;52.692;6.226;2022-10-31T15:02:23;15.30;99.90
51739;DHT22;37815;52.692;6.226;2022-10-31T15:07:26;15.20;99.90
51739;DHT22;37815;52.692;6.226;2022-10-31T15:12:30;15.20;99.90
51739;DHT22;37815;52.692;6.226;2022-10-31T15:17:32;15.20;99.90
51739;DHT22;37815;52.692;6.226;2022-10-31T15:22:33;15.20;99.90
51739;DHT22;37815;52.692;6.226;2022-10-31T15:27:34;15.10;99.90
51739;DHT22;37815;52.692;6.226;2022-10-31T15:32:34;15.00;99.90
51739;DHT22;37815;52.692;6.226;2022-10-31T15:37:35;14.90;99.90
51739;DHT22;37815;52.692;6.226;2022-10-31T15:42:39;14.80;99.90
51739;DHT22;37815;52.692;6.226;2022-10-31T15:48:02;14.80;99.90
51739;DHT22;37815;52.692;6.226;2022-10-31T15:53:06;14.70;99.90
51739;DHT22;37815;52.692;6.226;2022-10-31T15:58:16;14.70;99.90
51739;DHT22;37815;52.692;6.226;2022-10-31T16:08:33;14.70;99.90
51739;DHT22;37815;52.692;6.226;2022-10-31T16:13:37;14.70;99.90
51739;DHT22;37815;52.692;6.226;2022-10-31T16:18:41;14.80;99.90
51739;DHT22;37815;52.692;6.226;2022-10-31T16:23:47;14.90;99.90
51739;DHT22;37815;52.692;6.226;2022-10-31T16:28:52;15.00;99.90
51739;DHT22;37815;52.692;6.226;2022-10-31T16:34:05;15.00;99.90
51739;DHT22;37815;52.692;6.226;2022-10-31T16:39:10;15.10;99.90
51739;DHT22;37815;52.692;6.226;2022-10-31T16:44:21;15.10;99.90
51739;DHT22;37815;52.692;6.226;2022-10-31T16:49:22;15.20;99.90
51739;DHT22;37815;52.692;6.226;2022-10-31T16:54:24;15.20;99.90
51739;DHT22;37815;52.692;6.226;2022-10-31T16:59:25;15.20;99.90
51739;DHT22;37815;52.692;6.226;2022-10-31T17:04:26;15.20;99.90
51739;DHT22;37815;52.692;6.226;2022-10-31T17:09:27;15.20;99.90
51739;DHT22;37815;52.692;6.226;2022-10-31T17:14:28;15.20;99.90
51739;DHT22;37815;52.692;6.226;2022-10-31T17:19:29;15.20;99.90
51739;DHT22;37815;52.692;6.226;2022-10-31T17:24:29;15.20;99.90
51739;DHT22;37815;52.692;6.226;2022-10-31T17:29:30;15.20;99.90
51739;DHT22;37815;52.692;6.226;2022-10-31T17:34:32;15.30;99.90
51739;DHT22;37815;52.692;6.226;2022-10-31T17:39:32;15.20;99.90
51739;DHT22;37815;52.692;6.226;2022-10-31T17:44:33;15.30;99.90
51739;DHT22;37815;52.692;6.226;2022-10-31T17:49:34;15.20;99.90
51739;DHT22;37815;52.692;6.226;2022-10-31T17:54:35;15.30;99.90
51739;DHT22;37815;52.692;6.226;2022-10-31T17:59:36;15.30;99.90
51739;DHT22;37815;52.692;6.226;2022-10-31T18:04:37;15.40;99.90
51739;DHT22;37815;52.692;6.226;2022-10-31T18:09:40;15.40;99.90
51739;DHT22;37815;52.692;6.226;2022-10-31T18:14:41;15.30;99.90
51739;DHT22;37815;52.692;6.226;2022-10-31T18:19:42;15.40;99.90
51739;DHT22;37815;52.692;6.226;2022-10-31T18:24:43;15.40;99.90
51739;DHT22;37815;52.692;6.226;2022-10-31T18:29:44;15.40;99.90
51739;DHT22;37815;52.692;6.226;2022-10-31T18:34:44;15.30;99.90
51739;DHT22;37815;52.692;6.226;2022-10-31T18:39:45;15.40;99.90
51739;DHT22;37815;52.692;6.226;2022-10-31T18:44:46;15.30;99.90
51739;DHT22;37815;52.692;6.226;2022-10-31T18:49:46;15.30;99.90
51739;DHT22;37815;52.692;6.226;2022-10-31T18:54:47;15.30;99.90
51739;DHT22;37815;52.692;6.226;2022-10-31T18:59:48;15.30;99.90
51739;DHT22;37815;52.692;6.226;2022-10-31T19:04:48;15.30;99.90
51739;DHT22;37815;52.692;6.226;2022-10-31T19:09:49;15.30;99.90
51739;DHT22;37815;52.692;6.226;2022-10-31T19:14:50;15.30;99.90
51739;DHT22;37815;52.692;6.226;2022-10-31T19:19:51;15.30;99.90
51739;DHT22;37815;52.692;6.226;2022-10-31T19:24:51;15.30;99.90
51739;DHT22;37815;52.692;6.226;2022-10-31T19:29:52;15.30;99.90
51739;DHT22;37815;52.692;6.226;2022-10-31T19:34:53;15.30;99.90
51739;DHT22;37815;52.692;6.226;2022-10-31T19:39:54;15.30;99.90
51739;DHT22;37815;52.692;6.226;2022-10-31T19:44:57;15.20;99.90
51739;DHT22;37815;52.692;6.226;2022-10-31T19:49:57;15.20;99.90
51739;DHT22;37815;52.692;6.226;2022-10-31T19:54:58;15.20;99.90
51739;DHT22;37815;52.692;6.226;2022-10-31T19:59:59;15.20;99.90
51739;DHT22;37815;52.692;6.226;2022-10-31T20:04:59;15.20;99.90
51739;DHT22;37815;52.692;6.226;2022-10-31T20:10:01;15.20;99.90
51739;DHT22;37815;52.692;6.226;2022-10-31T20:15:02;15.20;99.90
51739;DHT22;37815;52.692;6.226;2022-10-31T20:20:03;15.20;99.90
51739;DHT22;37815;52.692;6.226;2022-10-31T20:25:08;15.20;99.90
51739;DHT22;37815;52.692;6.226;2022-10-31T20:30:09;15.20;99.90
51739;DHT22;37815;52.692;6.226;2022-10-31T20:35:10;15.20;99.90
51739;DHT22;37815;52.692;6.226;2022-10-31T20:40:11;15.20;99.90
51739;DHT22;37815;52.692;6.226;2022-10-31T20:45:12;15.20;99.90
51739;DHT22;37815;52.692;6.226;2022-10-31T20:50:12;15.20;99.90
51739;DHT22;37815;52.692;6.226;2022-10-31T20:55:13;15.10;99.90
51739;DHT22;37815;52.692;6.226;2022-10-31T21:00:14;15.20;99.90
51739;DHT22;37815;52.692;6.226;2022-10-31T21:05:23;15.10;99.90
51739;DHT22;37815;52.692;6.226;2022-10-31T21:10:23;15.10;99.90
51739;DHT22;37815;52.692;6.226;2022-10-31T21:15:24;15.10;99.90
51739;DHT22;37815;52.692;6.226;2022-10-31T21:20:25;15.10;99.90
51739;DHT22;37815;52.692;6.226;2022-10-31T21:25:26;15.10;99.90
51739;DHT22;37815;52.692;6.226;2022-10-31T21:30:26;15.10;99.90
51739;DHT22;37815;52.692;6.226;2022-10-31T21:35:27;15.10;99.90
51739;DHT22;37815;52.692;6.226;2022-10-31T21:40:28;15.10;99.90
51739;DHT22;37815;52.692;6.226;2022-10-31T21:45:29;15.10;99.90
51739;DHT22;37815;52.692;6.226;2022-10-31T21:50:29;15.10;99.90
51739;DHT22;37815;52.692;6.226;2022-10-31T21:55:30;15.10;99.90
51739;DHT22;37815;52.692;6.226;2022-10-31T22:00:31;15.10;99.90
51739;DHT22;37815;52.692;6.226;2022-10-31T22:05:33;15.10;99.90
51739;DHT22;37815;52.692;6.226;2022-10-31T22:10:34;15.10;99.90
51739;DHT22;37815;52.692;6.226;2022-10-31T22:15:34;15.00;99.90
51739;DHT22;37815;52.692;6.226;2022-10-31T22:20:35;15.00;99.90
51739;DHT22;37815;52.692;6.226;2022-10-31T22:25:36;15.00;99.90
51739;DHT22;37815;52.692;6.226;2022-10-31T22:30:37;15.00;99.90
51739;DHT22;37815;52.692;6.226;2022-10-31T22:35:38;15.00;99.90
51739;DHT22;37815;52.692;6.226;2022-10-31T22:40:38;15.00;99.90
51739;DHT22;37815;52.692;6.226;2022-10-31T22:45:39;15.00;99.90
51739;DHT22;37815;52.692;6.226;2022-10-31T22:50:39;15.00;99.90
51739;DHT22;37815;52.692;6.226;2022-10-31T22:55:40;15.00;99.90
51739;DHT22;37815;52.692;6.226;2022-10-31T23:00:41;15.00;99.90
51739;DHT22;37815;52.692;6.226;2022-10-31T23:05:42;15.00;99.90
51739;DHT22;37815;52.692;6.226;2022-10-31T23:10:42;15.00;99.90
51739;DHT22;37815;52.692;6.226;2022-10-31T23:15:44;15.00;99.90
51739;DHT22;37815;52.692;6.226;2022-10-31T23:20:50;15.00;99.90
51739;DHT22;37815;52.692;6.226;2022-10-31T23:25:51;15.00;99.90
51739;DHT22;37815;52.692;6.226;2022-10-31T23:31:11;15.00;99.90
51739;DHT22;37815;52.692;6.226;2022-10-31T23:36:12;15.00;99.90
51739;DHT22;37815;52.692;6.226;2022-10-31T23:41:12;15.00;99.90
51739;DHT22;37815;52.692;6.226;2022-10-31T23:46:13;15.00;99.90
51739;DHT22;37815;52.692;6.226;2022-10-31T23:51:14;15.00;99.90
51739;DHT22;37815;52.692;6.226;2022-10-31T23:56:15;15.00;99.90
